KIPL/IPL METAR and TAF weather

Enter ICAO airport designator
Station Type Date Time Source
KIPL METAR 2022/10/01 07:53 UTC NOAA

KIPL 010753Z AUTO 05005KT 10SM CLR 29/11 A2970 RMK AO2 SLP056 T02890111 403780256


Station Type Date Time Source
KIPL Decoded METAR 2022/10/01 07:53 UTC NOAA

Imperial, Imperial County Airport, CA, United States (KIPL) 32-50-03N 115-34-43W -15M
Oct 01, 2022 - 03:53 AM EDT / 2022.10.01 0753 UTC
Wind: from the NE (050 degrees) at 6 MPH (5 KT):0
Visibility: 10 mile(s):0
Sky conditions: clear
Temperature: 84.0 F (28.9 C)
Dew Point: 52.0 F (11.1 C)
Relative Humidity: 33%
Pressure (altimeter): 29.7 in. Hg (1005 hPa)
ob: KIPL 010753Z AUTO 05005KT 10SM CLR 29/11 A2970 RMK AO2 SLP056 T02890111 403780256
cycle: 8

Station Type Date Time Source
KIPL TAF 2022/10/01 06:24 UTC NOAA

TAF KIPL 010521Z 0106/0206 25005KT P6SM FEW250
FM011200 14005KT P6SM FEW250
FM012100 15008KT P6SM SKC

Example: see airport list